McFarland, Kansas
Current Conditions -  °F | °C
As of 1:52 AM on Sunday 21 Dec 2014 (Local Time) from KMHK Reporting Station
Overcast Overcast  
Wind Chill: 35°   Ceiling: 1500
Heat Index: 42°   Visibility: 10mi
Dew Point: 38°   Wind: 13mph
Humidity: 85%   Direction: 210°SSW
Pressure: 30.03"   Gusts: NA
Location:  39.05°N, 96.24°W
Report Text: KMHK 210752Z AUTO 21011KT 10SM OVC015 06/03 A3003 RMK AO2 SLP173 T00560033 TSNO
Loading
Personal Weather Stations






























Interactive Weather Map New forecast layout! Learn more

10-Day Weather Forecast

Advertisements
Track Severe Weather on mobile